createdAt,value
2022-12-31T00:01:33.926Z,10.30
2022-12-31T00:04:00.790Z,7.47
2022-12-31T00:06:33.430Z,7.90
2022-12-31T00:09:02.512Z,11.73
2022-12-31T00:11:30.563Z,9.90
2022-12-31T00:13:58.089Z,11.98
2022-12-31T00:16:27.912Z,12.15
2022-12-31T00:18:59.423Z,7.32
2022-12-31T00:21:28.505Z,9.90
2022-12-31T00:23:55.700Z,9.25
2022-12-31T00:26:29.218Z,8.15
2022-12-31T00:28:57.830Z,7.90
2022-12-31T00:31:31.440Z,7.38
2022-12-31T00:33:59.228Z,13.15
2022-12-31T00:36:29.660Z,9.95
2022-12-31T00:38:58.575Z,13.85
2022-12-31T00:41:26.288Z,13.27
2022-12-31T00:43:53.640Z,12.10
2022-12-31T00:46:21.486Z,12.60
2022-12-31T00:48:49.349Z,11.93
2022-12-31T00:51:18.656Z,13.18
2022-12-31T00:53:46.216Z,13.90
2022-12-31T00:56:18.647Z,9.73
2022-12-31T00:58:45.927Z,15.32
2022-12-31T01:01:15.012Z,14.88
2022-12-31T01:03:42.316Z,12.38
2022-12-31T01:06:09.912Z,15.90
2022-12-31T01:08:36.999Z,11.77
2022-12-31T01:11:19.430Z,13.52
2022-12-31T01:13:49.620Z,15.07
2022-12-31T01:16:23.668Z,12.35
2022-12-31T01:18:50.973Z,12.15
2022-12-31T01:21:18.630Z,12.05
2022-12-31T01:23:45.791Z,10.98
2022-12-31T01:26:14.386Z,12.82
2022-12-31T01:28:41.647Z,10.50
2022-12-31T01:31:11.925Z,14.00
2022-12-31T01:33:39.528Z,14.57
2022-12-31T01:36:09.857Z,14.82
2022-12-31T01:38:36.814Z,12.38
2022-12-31T01:41:04.577Z,10.45
2022-12-31T01:43:43.030Z,12.35
2022-12-31T01:46:12.514Z,12.52
2022-12-31T01:48:39.556Z,9.18
2022-12-31T01:51:09.575Z,11.43
2022-12-31T01:53:40.733Z,9.52
2022-12-31T01:56:07.940Z,8.68
2022-12-31T01:58:42.222Z,7.68
2022-12-31T02:01:12.973Z,9.18
2022-12-31T02:03:40.544Z,5.18
2022-12-31T02:06:33.055Z,9.73
2022-12-31T02:09:00.701Z,7.78
2022-12-31T02:11:36.392Z,8.55
2022-12-31T02:14:11.532Z,5.75
2022-12-31T02:17:13.123Z,7.63
2022-12-31T02:20:13.593Z,7.05
2022-12-31T02:23:01.992Z,6.25
2022-12-31T02:25:43.845Z,6.55
2022-12-31T02:28:45.983Z,5.18
2022-12-31T02:31:17.676Z,4.90
2022-12-31T02:33:52.413Z,5.15
2022-12-31T02:36:28.683Z,5.40
2022-12-31T02:38:56.668Z,9.10
2022-12-31T02:41:42.193Z,4.68
2022-12-31T02:44:25.322Z,6.78
2022-12-31T02:47:01.197Z,3.15
2022-12-31T02:49:51.728Z,5.53
2022-12-31T02:52:41.206Z,6.80
2022-12-31T02:55:10.916Z,4.75
2022-12-31T02:57:57.800Z,6.30
2022-12-31T03:00:43.192Z,4.93
2022-12-31T03:03:11.459Z,6.45
2022-12-31T03:05:42.365Z,4.20
2022-12-31T03:08:09.589Z,3.88
2022-12-31T03:10:36.832Z,3.80
2022-12-31T03:13:03.813Z,3.95
2022-12-31T03:15:33.375Z,6.20
2022-12-31T03:18:14.931Z,4.30
2022-12-31T03:21:00.193Z,5.90
2022-12-31T03:23:31.088Z,6.55
2022-12-31T03:25:59.283Z,2.58
2022-12-31T03:28:28.567Z,8.20
2022-12-31T03:31:01.623Z,3.03
2022-12-31T03:33:40.160Z,3.72
2022-12-31T03:36:10.035Z,9.82
2022-12-31T03:38:37.119Z,3.58
2022-12-31T03:43:48.244Z,5.88
2022-12-31T03:46:15.093Z,5.93
2022-12-31T03:48:41.949Z,4.82
2022-12-31T03:51:08.865Z,2.45
2022-12-31T03:53:35.728Z,6.50
2022-12-31T03:56:02.763Z,3.33
2022-12-31T03:58:29.627Z,4.68
2022-12-31T04:00:56.583Z,3.08
2022-12-31T04:03:23.649Z,3.13
2022-12-31T04:05:55.437Z,4.45
2022-12-31T04:08:22.359Z,3.92
2022-12-31T04:10:49.176Z,6.18
2022-12-31T04:13:16.043Z,4.55
2022-12-31T04:15:42.869Z,5.30
2022-12-31T04:18:09.732Z,3.88
2022-12-31T04:20:36.763Z,7.97
2022-12-31T04:23:03.894Z,5.13
2022-12-31T04:25:30.775Z,5.22
2022-12-31T04:27:57.611Z,8.05
2022-12-31T04:30:24.414Z,6.22
2022-12-31T04:32:51.300Z,4.82
2022-12-31T04:35:18.168Z,7.03
2022-12-31T04:37:44.969Z,11.30
2022-12-31T04:40:12.232Z,4.18
2022-12-31T04:42:39.039Z,4.28
2022-12-31T04:45:06.386Z,3.75
2022-12-31T04:47:33.420Z,4.40
2022-12-31T04:50:00.278Z,5.13
2022-12-31T04:52:27.081Z,4.47
2022-12-31T04:54:53.891Z,3.58
2022-12-31T04:57:20.748Z,3.60
2022-12-31T04:59:47.714Z,6.30
2022-12-31T05:02:14.872Z,3.35
2022-12-31T05:04:41.894Z,14.48
2022-12-31T05:07:08.684Z,5.85
2022-12-31T05:09:35.508Z,4.60
2022-12-31T05:12:02.384Z,4.35
2022-12-31T05:14:29.227Z,5.18
2022-12-31T05:16:56.067Z,3.60
2022-12-31T05:19:22.870Z,4.63
2022-12-31T05:22:09.792Z,9.27
2022-12-31T05:24:36.683Z,7.40
2022-12-31T05:27:03.897Z,7.90
2022-12-31T05:29:30.760Z,5.45
2022-12-31T05:31:57.564Z,3.78
2022-12-31T05:34:24.346Z,5.90
2022-12-31T05:36:51.441Z,7.70
2022-12-31T05:39:18.250Z,3.90
2022-12-31T05:41:45.057Z,10.27
2022-12-31T05:44:11.931Z,7.72
2022-12-31T05:46:38.781Z,8.05
2022-12-31T05:49:05.653Z,8.27
2022-12-31T05:51:32.656Z,9.55
2022-12-31T05:53:59.484Z,8.55
2022-12-31T05:56:26.320Z,7.65
2022-12-31T05:58:53.167Z,7.82
2022-12-31T06:01:20.156Z,6.82
2022-12-31T06:03:47.393Z,8.93
2022-12-31T06:06:14.310Z,7.63
2022-12-31T06:08:41.297Z,7.40
2022-12-31T06:11:08.365Z,9.77
2022-12-31T06:13:35.246Z,9.35
2022-12-31T06:16:07.282Z,8.57
2022-12-31T06:18:34.173Z,7.63
2022-12-31T06:21:01.359Z,4.57
2022-12-31T06:23:28.200Z,6.10
2022-12-31T06:25:55.101Z,4.30
2022-12-31T06:28:22.230Z,5.75
2022-12-31T06:30:49.072Z,8.80
2022-12-31T06:33:15.930Z,3.95
2022-12-31T06:35:42.780Z,5.63
2022-12-31T06:38:09.620Z,6.07
2022-12-31T06:40:37.961Z,4.55
2022-12-31T06:43:05.713Z,6.05
2022-12-31T06:45:32.700Z,7.15
2022-12-31T06:47:59.551Z,5.95
2022-12-31T06:50:26.435Z,6.75
2022-12-31T06:52:53.204Z,5.35
2022-12-31T06:55:20.437Z,9.00
2022-12-31T06:57:47.591Z,5.72
2022-12-31T07:00:15.122Z,5.25
2022-12-31T07:03:26.589Z,5.95
2022-12-31T07:06:02.114Z,4.57
2022-12-31T07:08:34.088Z,5.03
2022-12-31T07:11:14.396Z,6.25
2022-12-31T07:14:10.360Z,6.88
2022-12-31T07:17:04.810Z,5.50
2022-12-31T07:19:37.684Z,4.85
2022-12-31T07:22:05.384Z,6.80
2022-12-31T07:24:32.508Z,5.22
2022-12-31T07:27:23.640Z,4.72
2022-12-31T07:30:03.149Z,5.60
2022-12-31T07:33:02.009Z,4.35
2022-12-31T07:35:34.778Z,3.45
2022-12-31T07:38:49.598Z,4.45
2022-12-31T07:44:05.139Z,4.03
2022-12-31T07:46:47.574Z,4.70
2022-12-31T07:49:14.869Z,5.75
2022-12-31T07:51:42.054Z,4.60
2022-12-31T07:54:13.913Z,6.32
2022-12-31T07:56:42.119Z,5.65
2022-12-31T07:59:24.568Z,5.22
2022-12-31T08:02:13.941Z,6.57
2022-12-31T08:04:53.532Z,10.48
2022-12-31T08:07:52.696Z,6.78
2022-12-31T08:10:31.180Z,9.20
2022-12-31T08:13:09.789Z,7.40
2022-12-31T08:15:40.334Z,6.47
2022-12-31T08:18:08.441Z,6.95
2022-12-31T08:20:54.480Z,8.13
2022-12-31T08:23:56.621Z,6.65
2022-12-31T08:26:56.770Z,6.93
2022-12-31T08:29:38.794Z,7.20
2022-12-31T08:32:20.886Z,5.97
2022-12-31T08:35:06.536Z,6.55
2022-12-31T08:37:47.945Z,9.65
2022-12-31T08:40:30.050Z,7.55
2022-12-31T08:43:21.939Z,11.32
2022-12-31T08:45:51.854Z,5.15
2022-12-31T08:48:39.753Z,7.22
2022-12-31T08:51:12.813Z,5.72
2022-12-31T08:53:39.883Z,8.50
2022-12-31T08:56:34.433Z,7.55
2022-12-31T08:59:01.184Z,9.98
2022-12-31T09:01:40.190Z,5.68
2022-12-31T09:04:19.190Z,5.53
2022-12-31T09:06:57.446Z,14.77
2022-12-31T09:09:37.427Z,5.13
2022-12-31T09:12:16.213Z,8.77
2022-12-31T09:14:50.705Z,14.32
2022-12-31T09:17:38.531Z,192.82
2022-12-31T09:20:06.393Z,11.38
2022-12-31T09:22:33.480Z,9.38
2022-12-31T09:25:00.659Z,9.63
2022-12-31T09:27:33.755Z,18.63
2022-12-31T09:30:14.500Z,21.52
2022-12-31T09:33:06.023Z,9.05
2022-12-31T09:35:52.935Z,12.82
2022-12-31T09:38:52.352Z,5.05
2022-12-31T09:41:38.008Z,8.68
2022-12-31T09:44:47.889Z,84.90
2022-12-31T09:47:17.761Z,6.45
2022-12-31T09:50:09.058Z,4.25
2022-12-31T09:53:16.183Z,3.25
2022-12-31T09:55:52.100Z,2.55
2022-12-31T09:58:37.565Z,4.20
2022-12-31T10:01:38.620Z,4.43
2022-12-31T10:04:25.450Z,5.97
2022-12-31T10:07:17.110Z,2.63
2022-12-31T10:09:53.204Z,7.57
2022-12-31T10:12:50.749Z,3.13
2022-12-31T10:15:35.730Z,3.50
2022-12-31T10:18:33.028Z,5.60
2022-12-31T10:21:29.275Z,3.03
2022-12-31T10:24:33.197Z,5.20
2022-12-31T10:27:16.460Z,4.78
2022-12-31T10:29:47.523Z,1.02
2022-12-31T10:32:40.690Z,6.22
2022-12-31T10:35:48.279Z,5.20
2022-12-31T10:38:27.675Z,11.32
2022-12-31T10:41:26.436Z,15.48
2022-12-31T10:44:05.159Z,10.98
2022-12-31T10:46:43.734Z,4.30
2022-12-31T10:49:16.606Z,5.22
2022-12-31T10:52:10.617Z,3.88
2022-12-31T10:55:05.180Z,23.80
2022-12-31T10:58:15.172Z,5.57
2022-12-31T11:00:54.401Z,5.55
2022-12-31T11:03:39.963Z,4.38
2022-12-31T11:06:37.858Z,8.10
2022-12-31T11:09:16.761Z,7.82
2022-12-31T11:12:13.971Z,10.43
2022-12-31T11:15:11.374Z,6.70
2022-12-31T11:17:50.669Z,13.18
2022-12-31T11:20:49.355Z,2.53
2022-12-31T11:23:26.632Z,13.88
2022-12-31T11:26:11.621Z,6.18
2022-12-31T11:29:04.696Z,6.57
2022-12-31T11:31:45.020Z,21.10
2022-12-31T11:34:29.914Z,44.53
2022-12-31T11:37:11.480Z,19.27
2022-12-31T11:39:57.033Z,21.10
2022-12-31T11:42:55.095Z,7.70
2022-12-31T11:45:21.954Z,14.68
2022-12-31T11:51:12.992Z,26.20
2022-12-31T11:54:01.315Z,37.55
2022-12-31T11:56:37.659Z,22.42
2022-12-31T11:59:15.686Z,32.20
2022-12-31T12:02:01.888Z,14.43
2022-12-31T12:04:28.788Z,12.10
2022-12-31T12:06:56.010Z,17.52
2022-12-31T12:09:28.553Z,6.63
2022-12-31T12:12:05.676Z,13.20
2022-12-31T12:14:38.799Z,28.45
2022-12-31T12:19:46.679Z,12.07
2022-12-31T12:22:23.985Z,34.80
2022-12-31T12:25:15.798Z,33.33
2022-12-31T12:27:45.760Z,23.48
2022-12-31T12:30:25.991Z,38.40
2022-12-31T12:33:02.276Z,37.95
2022-12-31T12:35:35.616Z,21.85
2022-12-31T12:38:16.251Z,21.10
2022-12-31T12:40:57.307Z,21.50
2022-12-31T12:43:27.431Z,31.00
2022-12-31T12:45:59.752Z,15.80
2022-12-31T12:48:41.778Z,9.02
2022-12-31T12:51:36.563Z,6.00
2022-12-31T12:54:06.466Z,8.35
2022-12-31T12:56:46.756Z,10.25
2022-12-31T12:59:51.207Z,20.33
2022-12-31T13:02:42.344Z,21.13
2022-12-31T13:05:28.419Z,18.70
2022-12-31T13:08:12.620Z,19.45
2022-12-31T13:10:59.496Z,21.30
2022-12-31T13:13:47.455Z,9.85
2022-12-31T13:16:30.660Z,6.55
2022-12-31T13:19:18.965Z,13.70
2022-12-31T13:21:54.545Z,9.70
2022-12-31T13:24:24.258Z,12.30
2022-12-31T13:26:54.369Z,15.95
2022-12-31T13:29:26.271Z,27.02
2022-12-31T13:31:56.848Z,16.90
2022-12-31T13:34:29.101Z,12.32
2022-12-31T13:37:02.246Z,21.50
2022-12-31T13:39:32.300Z,13.65
2022-12-31T13:42:09.152Z,16.50
2022-12-31T13:44:49.678Z,27.20
2022-12-31T13:47:24.162Z,21.23
2022-12-31T13:50:02.799Z,29.42
2022-12-31T13:52:32.728Z,35.88
2022-12-31T13:55:26.574Z,18.02
2022-12-31T13:58:31.501Z,10.98
2022-12-31T14:01:32.070Z,17.85
2022-12-31T14:04:16.501Z,12.07
2022-12-31T14:07:01.981Z,10.93
2022-12-31T14:09:33.224Z,13.38
2022-12-31T14:12:22.984Z,8.45
2022-12-31T14:15:14.935Z,14.45
2022-12-31T14:17:51.128Z,12.52
2022-12-31T14:20:32.999Z,16.55
2022-12-31T14:23:35.696Z,19.92
2022-12-31T14:26:08.962Z,36.42
2022-12-31T14:28:46.508Z,11.65
2022-12-31T14:31:38.265Z,13.40
2022-12-31T14:34:35.650Z,9.10
2022-12-31T14:37:09.580Z,14.50
2022-12-31T14:39:48.390Z,22.73
2022-12-31T14:42:31.629Z,38.20
2022-12-31T14:45:20.949Z,34.95
2022-12-31T14:47:57.501Z,28.35
2022-12-31T14:50:27.434Z,23.63
2022-12-31T14:53:09.138Z,11.98
2022-12-31T14:55:38.054Z,17.33
2022-12-31T14:58:37.132Z,12.43
2022-12-31T15:01:22.278Z,28.27
2022-12-31T15:03:52.193Z,12.35
2022-12-31T15:06:37.224Z,7.07
2022-12-31T15:09:19.126Z,10.45
2022-12-31T15:12:10.632Z,9.45
2022-12-31T15:14:58.840Z,8.52
2022-12-31T15:17:43.327Z,9.98
2022-12-31T15:20:17.535Z,11.55
2022-12-31T15:22:47.333Z,14.50
2022-12-31T15:25:23.022Z,9.55
2022-12-31T15:27:50.718Z,15.20
2022-12-31T15:30:32.625Z,23.75
2022-12-31T15:33:03.453Z,37.72
2022-12-31T15:35:52.098Z,21.13
2022-12-31T15:38:33.393Z,23.30
2022-12-31T15:41:01.053Z,30.38
2022-12-31T15:43:52.813Z,57.95
2022-12-31T15:46:27.956Z,31.67
2022-12-31T15:49:15.432Z,31.15
2022-12-31T15:52:21.464Z,20.48
2022-12-31T15:54:50.769Z,21.38
2022-12-31T15:57:20.812Z,49.08
2022-12-31T15:59:47.926Z,24.23
2022-12-31T16:02:24.143Z,18.60
2022-12-31T16:04:51.904Z,40.15
2022-12-31T16:07:19.141Z,55.38
2022-12-31T16:09:54.837Z,25.70
2022-12-31T16:12:32.797Z,22.10
2022-12-31T16:15:01.671Z,21.30
2022-12-31T16:17:34.279Z,33.22
2022-12-31T16:20:20.052Z,48.58
2022-12-31T16:22:53.048Z,71.20
2022-12-31T16:25:36.276Z,32.72
2022-12-31T16:28:04.126Z,23.70
2022-12-31T16:30:33.024Z,38.03
2022-12-31T16:33:05.760Z,26.95
2022-12-31T16:35:36.955Z,43.17
2022-12-31T16:38:19.190Z,81.07
2022-12-31T16:41:01.019Z,112.07
2022-12-31T16:43:36.084Z,90.78
2022-12-31T16:46:15.189Z,38.45
2022-12-31T16:48:51.926Z,46.50
2022-12-31T16:51:22.432Z,42.72
2022-12-31T16:53:50.265Z,70.05
2022-12-31T16:56:34.290Z,122.15
2022-12-31T16:59:06.091Z,75.93
2022-12-31T17:01:35.670Z,47.63
2022-12-31T17:04:06.693Z,31.40
2022-12-31T17:06:33.770Z,74.05
2022-12-31T17:09:05.757Z,32.80
2022-12-31T17:11:55.836Z,52.15
2022-12-31T17:14:28.667Z,35.47
2022-12-31T17:17:07.993Z,28.45
2022-12-31T17:19:48.172Z,33.03
2022-12-31T17:22:35.816Z,46.35
2022-12-31T17:25:06.672Z,25.92
2022-12-31T17:27:34.886Z,39.92
2022-12-31T17:30:22.536Z,31.48
2022-12-31T17:32:50.202Z,31.92
2022-12-31T17:35:35.486Z,28.38
2022-12-31T17:38:21.181Z,27.85
2022-12-31T17:41:05.459Z,32.10
2022-12-31T17:43:42.551Z,22.88
2022-12-31T17:46:12.864Z,27.95
2022-12-31T17:48:40.166Z,32.63
2022-12-31T17:51:07.050Z,16.65
2022-12-31T17:53:33.875Z,33.33
2022-12-31T17:56:06.464Z,26.13
2022-12-31T17:58:38.479Z,24.42
2022-12-31T18:01:07.190Z,20.70
2022-12-31T18:03:34.203Z,19.83
2022-12-31T18:06:01.247Z,21.15
2022-12-31T18:08:28.871Z,28.05
2022-12-31T18:10:56.537Z,47.72
2022-12-31T18:13:25.401Z,21.25
2022-12-31T18:15:53.124Z,22.55
2022-12-31T18:18:28.623Z,27.75
2022-12-31T18:20:58.148Z,30.73
2022-12-31T18:23:47.689Z,19.88
2022-12-31T18:26:19.900Z,20.95
2022-12-31T18:28:47.675Z,24.13
2022-12-31T18:31:22.450Z,19.42
2022-12-31T18:33:50.385Z,21.85
2022-12-31T18:36:19.380Z,44.13
2022-12-31T18:38:46.444Z,14.85
2022-12-31T18:41:20.357Z,17.85
2022-12-31T18:43:48.000Z,13.45
2022-12-31T18:46:17.229Z,15.05
2022-12-31T18:48:44.577Z,21.92
2022-12-31T18:51:17.689Z,13.30
2022-12-31T18:56:14.148Z,18.00
2022-12-31T18:58:41.589Z,15.55
2022-12-31T19:01:38.337Z,13.18
2022-12-31T19:04:27.584Z,14.27
2022-12-31T19:06:55.444Z,19.48
2022-12-31T19:09:45.111Z,17.92
2022-12-31T19:12:13.611Z,22.98
2022-12-31T19:14:40.525Z,27.30
2022-12-31T19:19:34.716Z,137.82
2022-12-31T19:22:02.562Z,26.98
2022-12-31T19:24:29.584Z,65.35
2022-12-31T19:26:56.432Z,37.00
2022-12-31T19:29:26.065Z,33.95
2022-12-31T19:31:53.353Z,27.98
2022-12-31T19:34:20.419Z,41.97
2022-12-31T19:36:49.834Z,20.65
2022-12-31T19:39:19.507Z,11.38
2022-12-31T19:41:54.724Z,16.33
2022-12-31T19:44:25.624Z,18.10
2022-12-31T19:46:52.572Z,11.48
2022-12-31T19:49:19.610Z,13.38
2022-12-31T19:51:46.490Z,13.18
2022-12-31T19:54:13.839Z,16.73
2022-12-31T19:56:40.809Z,19.60
2022-12-31T19:59:09.499Z,29.75
2022-12-31T20:01:36.541Z,32.67
2022-12-31T20:04:03.632Z,34.13
2022-12-31T20:06:30.504Z,26.58
2022-12-31T20:08:57.420Z,15.57
2022-12-31T20:11:24.858Z,14.88
2022-12-31T20:13:53.634Z,24.63
2022-12-31T20:16:22.998Z,17.90
2022-12-31T20:18:50.733Z,12.57
2022-12-31T20:21:36.467Z,14.60
2022-12-31T20:24:03.392Z,13.48
2022-12-31T20:26:30.270Z,14.82
2022-12-31T20:28:57.155Z,17.25
2022-12-31T20:31:25.538Z,20.17
2022-12-31T20:33:54.531Z,21.58
2022-12-31T20:36:22.671Z,24.60
2022-12-31T20:39:21.104Z,24.58
2022-12-31T20:41:55.303Z,18.33
2022-12-31T20:44:22.209Z,20.85
2022-12-31T20:46:49.095Z,22.27
2022-12-31T20:49:15.992Z,18.45
2022-12-31T20:51:46.139Z,26.23
2022-12-31T20:54:15.842Z,26.20
2022-12-31T20:56:42.810Z,20.00
2022-12-31T20:59:10.414Z,34.17
2022-12-31T21:02:11.732Z,30.17
2022-12-31T21:10:37.366Z,20.88
2022-12-31T21:13:04.347Z,21.10
2022-12-31T21:15:31.189Z,30.90
2022-12-31T21:18:03.275Z,26.20
2022-12-31T21:20:32.447Z,22.88
2022-12-31T21:23:02.410Z,22.15
2022-12-31T21:25:30.580Z,18.40
2022-12-31T21:27:57.521Z,17.25
2022-12-31T21:30:24.342Z,27.23
2022-12-31T21:32:51.166Z,30.08
2022-12-31T21:38:30.116Z,18.63
2022-12-31T21:41:05.265Z,19.70
2022-12-31T21:43:32.341Z,22.17
2022-12-31T21:47:24.852Z,17.83
2022-12-31T21:49:39.102Z,30.75
2022-12-31T21:58:28.126Z,19.52
2022-12-31T22:01:15.572Z,19.83
2022-12-31T22:03:42.985Z,21.13
2022-12-31T22:06:35.805Z,22.50
2022-12-31T22:09:02.712Z,26.90
2022-12-31T22:11:29.638Z,23.88
2022-12-31T22:13:56.492Z,27.25
2022-12-31T22:16:29.480Z,31.67
2022-12-31T22:21:26.693Z,21.05
2022-12-31T22:23:55.835Z,22.88
2022-12-31T22:26:48.649Z,47.55
2022-12-31T22:29:15.569Z,30.05
2022-12-31T22:31:45.510Z,37.42
2022-12-31T22:34:12.312Z,28.58
2022-12-31T22:36:39.110Z,28.48
2022-12-31T22:39:06.211Z,19.88
2022-12-31T22:41:34.162Z,22.58
2022-12-31T22:44:09.958Z,31.50
2022-12-31T22:46:37.720Z,30.10
2022-12-31T22:49:05.822Z,23.52
2022-12-31T22:51:57.790Z,23.55
2022-12-31T22:54:26.635Z,22.60
2022-12-31T22:57:16.124Z,30.85
2022-12-31T22:59:46.764Z,42.10
2022-12-31T23:02:13.589Z,87.25
2022-12-31T23:04:40.772Z,210.27
2022-12-31T23:07:07.627Z,170.95
2022-12-31T23:09:53.107Z,188.88
2022-12-31T23:12:21.460Z,178.95
2022-12-31T23:15:14.534Z,119.05
2022-12-31T23:17:59.892Z,159.73
2022-12-31T23:20:45.277Z,95.30
2022-12-31T23:23:15.475Z,174.82
2022-12-31T23:25:43.664Z,210.32
2022-12-31T23:28:16.951Z,181.88
2022-12-31T23:30:44.264Z,199.20
2022-12-31T23:33:25.718Z,193.35
2022-12-31T23:36:06.124Z,96.68
2022-12-31T23:38:33.074Z,76.13
2022-12-31T23:40:59.925Z,69.82
2022-12-31T23:43:26.773Z,63.00
2022-12-31T23:45:53.725Z,62.75
2022-12-31T23:48:20.618Z,50.13
2022-12-31T23:50:53.783Z,55.67
2022-12-31T23:53:24.900Z,71.20
2022-12-31T23:55:52.659Z,100.55
2022-12-31T23:58:20.972Z,89.53
